This is the latest recevied weather packets stored in our database for station/object N1TKS. If no packets are shown the sender has not sent any weather packets the latest 1 day(s).
| Time | Temp. | Humidity | Pressure | Rain* | Wind** | Luminosity | Snow |
|---|---|---|---|---|---|---|---|
| 1777999014 | 23.89° C | 55% | 1010.4 hPa | 0 mm | 0.45 m/s, 203° | - | - |
| 1777998759 | 23.33° C | 57% | 1010.5 hPa | 0 mm | 0.45 m/s, 138° | - | - |
| 1777998714 | 23.33° C | 57% | 1010.5 hPa | 0 mm | 0.45 m/s, 138° | - | - |
| 1777998413 | 23.33° C | 57% | 1010.6 hPa | 0 mm | 0.89 m/s, 226° | - | - |
| 1777998114 | 22.78° C | 57% | 1010.7 hPa | 0 mm | 0.45 m/s, 215° | - | - |
| 1777997954 | 22.78° C | 56% | 1010.6 hPa | 0 mm | 0.89 m/s, 192° | - | - |
| 1777997881 | 22.78° C | 59% | 1011 hPa | 0 mm | 0.45 m/s, 79° | - | - |
| 1777997814 | 22.78° C | 56% | 1010.6 hPa | 0 mm | 0.89 m/s, 192° | - | - |
| 1777997673 | 22.78° C | 58% | 1010.6 hPa | 0 mm | 0.89 m/s, 175° | - | - |
| 1777997587 | 22.78° C | 58% | 1010.6 hPa | 0 mm | 0.89 m/s, 175° | - | - |
| 1777997514 | 22.78° C | 58% | 1010.6 hPa | 0 mm | 0.89 m/s, 175° | - | - |
| 1777996774 | 22.78° C | 59% | 1011 hPa | 0 mm | 0.45 m/s, 79° | - | - |
| 1777996614 | 22.78° C | 59% | 1011 hPa | 0 mm | 0.45 m/s, 79° | - | - |
| 1777995950 | 21.67° C | 63% | 1011.2 hPa | 0 mm | 0 m/s | - | - |
| 1777995414 | 22.78° C | 57% | 1011 hPa | 0 mm | 0.45 m/s, 199° | - | - |
| 1777995253 | 22.78° C | 60% | 1011.1 hPa | 0 mm | 0.89 m/s, 178° | - | - |
| 1777995118 | 22.78° C | 60% | 1011.1 hPa | 0 mm | 0.89 m/s, 178° | - | - |
| 1777994950 | 22.22° C | 61% | 1011.1 hPa | 0 mm | 0 m/s | - | - |
| 1777994814 | 22.22° C | 61% | 1011.1 hPa | 0 mm | 0 m/s | - | - |
| 1777994707 | 21.67° C | 61% | 1011.2 hPa | 0 mm | 0.45 m/s, 214° | - | - |
| 1777994513 | 21.67° C | 61% | 1011.2 hPa | 0 mm | 0.45 m/s, 214° | - | - |
| 1777994328 | 21.67° C | 63% | 1011.2 hPa | 0 mm | 0 m/s | - | - |
| 1777994213 | 21.67° C | 63% | 1011.2 hPa | 0 mm | 0 m/s | - | - |
| 1777994029 | 20.56° C | 65% | 1011.5 hPa | 0 mm | 0 m/s | - | - |
| 1777993724 | 21.11° C | 63% | 1011.4 hPa | 0 mm | 0.89 m/s, 191° | - | - |
* Rain latest hour (hover to see other rain measurements)
** Current wind speed in m/s (hover to see current wind gust speed)